Time;durP1;ratioP1;P1;durP2;ratioP2;P2;SDS_P1;SDS_P2;PMS_P1;PMS_P2;Temp;Humidity;BMP_temperature;BMP_pressure;BME280_temperature;BME280_humidity;BME280_pressure;Samples;Min_cycle;Max_cycle;Signal;HPM_P1;HPM_P2
2022/11/03 00:02:17;;;;;;;12.63;2.97;;;11.90;66.80;;;;;;5068174;28;20110;-76
2022/11/03 00:04:42;;;;;;;15.80;3.30;;;11.90;66.80;;;;;;5075379;28;20043;-77
2022/11/03 00:07:09;;;;;;;9.90;2.72;;;11.90;66.80;;;;;;5071958;28;20053;-75
2022/11/03 00:09:34;;;;;;;9.82;3.00;;;11.90;66.80;;;;;;5055648;28;20391;-75
2022/11/03 00:12:00;;;;;;;12.15;2.97;;;11.90;66.80;;;;;;5055536;28;20060;-75
2022/11/03 00:14:27;;;;;;;10.95;2.63;;;11.90;66.90;;;;;;5068076;28;20040;-76
2022/11/03 00:16:53;;;;;;;12.55;3.13;;;11.90;66.90;;;;;;5074962;28;20673;-76
2022/11/03 00:19:19;;;;;;;10.02;2.42;;;11.90;66.90;;;;;;5075278;28;20169;-75
2022/11/03 00:21:45;;;;;;;15.57;3.45;;;11.90;66.80;;;;;;5075140;28;20036;-75
2022/11/03 00:24:12;;;;;;;11.18;3.30;;;11.90;66.80;;;;;;5058494;28;20040;-75
2022/11/03 00:26:38;;;;;;;13.25;2.30;;;11.90;66.80;;;;;;5071682;28;20040;-76
2022/11/03 00:29:12;;;;;;;12.23;2.17;;;11.90;66.70;;;;;;5075695;28;20014;-76
2022/11/03 00:31:40;;;;;;;15.00;2.78;;;11.90;66.80;;;;;;5075407;28;20081;-75
2022/11/03 00:34:06;;;;;;;9.65;2.40;;;11.90;66.80;;;;;;5058411;28;20097;-76
2022/11/03 00:36:34;;;;;;;17.35;2.83;;;11.90;66.80;;;;;;5075291;28;20433;-76
2022/11/03 00:39:00;;;;;;;8.55;2.65;;;11.90;66.70;;;;;;5075180;28;20062;-76
2022/11/03 00:41:26;;;;;;;9.60;2.42;;;11.80;66.70;;;;;;5075142;28;20043;-76
2022/11/03 00:43:52;;;;;;;10.73;2.92;;;11.90;66.70;;;;;;5074969;28;20048;-72
2022/11/03 00:46:20;;;;;;;12.10;3.42;;;11.90;66.70;;;;;;5074573;28;20482;-72
2022/11/03 00:48:46;;;;;;;10.20;2.70;;;11.90;66.80;;;;;;5074658;28;20047;-72
2022/11/03 00:51:19;;;;;;;13.65;3.42;;;11.80;66.70;;;;;;5074307;28;20119;-72
2022/11/03 00:53:49;;;;;;;12.50;3.10;;;11.80;66.70;;;;;;5074806;28;20040;-71
2022/11/03 00:56:23;;;;;;;16.55;3.20;;;11.80;66.80;;;;;;5071122;28;20028;-71
2022/11/03 00:58:50;;;;;;;8.43;2.33;;;11.80;66.80;;;;;;5074781;28;20483;-72
2022/11/03 01:01:23;;;;;;;16.42;3.20;;;11.80;66.90;;;;;;5074253;28;20051;-72
2022/11/03 01:06:51;;;;;;;16.02;3.13;;;11.70;66.90;;;;;;5073903;28;20055;-72
2022/11/03 01:09:23;;;;;;;9.00;2.95;;;11.70;66.90;;;;;;5074598;28;20044;-72
2022/11/03 01:12:06;;;;;;;17.42;3.30;;;11.70;67.10;;;;;;5091864;28;20109;-76
2022/11/03 01:14:42;;;;;;;13.18;2.42;;;11.70;67.20;;;;;;5078839;28;20044;-76
2022/11/03 01:17:11;;;;;;;13.20;4.13;;;11.60;67.20;;;;;;5061329;28;20165;-76
2022/11/03 01:19:37;;;;;;;13.90;3.40;;;11.60;67.30;;;;;;5079374;28;20040;-75
2022/11/03 01:22:03;;;;;;;10.25;2.33;;;11.60;67.40;;;;;;5078075;28;20040;-76
2022/11/03 01:24:29;;;;;;;13.27;3.22;;;11.60;67.50;;;;;;5074238;28;20035;-75
2022/11/03 01:26:54;;;;;;;13.98;3.45;;;11.60;67.60;;;;;;5094587;28;20449;-77
2022/11/03 01:29:20;;;;;;;12.77;2.90;;;11.60;67.70;;;;;;5078616;28;20036;-77
2022/11/03 01:31:46;;;;;;;12.68;2.92;;;11.60;67.80;;;;;;5074966;28;20119;-76
2022/11/03 01:34:17;;;;;;;12.85;2.75;;;11.50;67.80;;;;;;5078025;28;20043;-75
2022/11/03 01:36:43;;;;;;;11.70;2.58;;;11.60;68.10;;;;;;5077916;28;20123;-75
2022/11/03 01:39:11;;;;;;;14.48;2.67;;;11.50;68.00;;;;;;5061753;28;20036;-76
2022/11/03 01:41:36;;;;;;;13.02;3.15;;;11.50;68.10;;;;;;5095390;28;20043;-75
2022/11/03 01:44:08;;;;;;;14.55;2.92;;;11.50;68.30;;;;;;5070024;28;20105;-76
2022/11/03 01:46:45;;;;;;;12.82;2.60;;;11.40;68.40;;;;;;5058999;28;20400;-76
2022/11/03 01:49:16;;;;;;;14.30;2.60;;;11.50;68.60;;;;;;5075275;28;20056;-76
2022/11/03 01:51:47;;;;;;;12.90;3.13;;;11.40;68.70;;;;;;5078332;28;20387;-76
2022/11/03 01:54:18;;;;;;;10.50;2.42;;;11.40;68.80;;;;;;5094170;28;20039;-76
2022/11/03 01:56:47;;;;;;;14.82;2.85;;;11.40;69.00;;;;;;5077428;28;20480;-75
2022/11/03 01:59:15;;;;;;;9.90;2.45;;;11.30;69.00;;;;;;5060986;28;20028;-76
2022/11/03 02:01:44;;;;;;;14.90;3.40;;;11.30;69.20;;;;;;5074410;28;20067;-76
2022/11/03 02:04:19;;;;;;;12.00;2.70;;;11.30;69.30;;;;;;5043607;28;20036;-75
2022/11/03 02:06:51;;;;;;;12.50;2.92;;;11.30;69.50;;;;;;5061416;28;20379;-76
2022/11/03 02:09:18;;;;;;;13.43;2.63;;;11.30;69.50;;;;;;5077717;28;20061;-75
2022/11/03 02:14:27;;;;;;;15.50;3.40;;;11.30;69.70;;;;;;5063224;28;20059;-76
2022/11/03 02:16:58;;;;;;;11.55;3.03;;;11.30;69.80;;;;;;5077789;28;20037;-75
2022/11/03 02:19:38;;;;;;;11.70;2.95;;;11.30;69.90;;;;;;5094309;28;20115;-76
2022/11/03 02:22:19;;;;;;;11.60;3.95;;;11.30;70.00;;;;;;5077530;28;20531;-76
2022/11/03 02:24:51;;;;;;;9.60;2.40;;;11.30;70.00;;;;;;5059696;28;20036;-76
2022/11/03 02:27:18;;;;;;;12.88;3.05;;;11.30;70.10;;;;;;5077602;28;20388;-76
2022/11/03 02:29:44;;;;;;;11.80;3.05;;;11.30;70.20;;;;;;5077300;28;20044;-77
2022/11/03 02:32:40;;;;;;;9.45;2.70;;;11.20;70.20;;;;;;5077322;28;20051;-76
2022/11/03 02:35:30;;;;;;;10.77;2.70;;;11.20;70.20;;;;;;5077140;28;20040;-76
2022/11/03 02:37:59;;;;;;;11.70;2.60;;;11.30;70.40;;;;;;5060068;28;20032;-76
2022/11/03 02:40:52;;;;;;;14.55;4.00;;;11.20;70.40;;;;;;5077144;28;20112;-76
2022/11/03 02:43:20;;;;;;;9.05;2.40;;;11.30;70.50;;;;;;5060201;28;20122;-76
2022/11/03 02:45:48;;;;;;;13.98;3.00;;;11.20;70.50;;;;;;5076958;28;20072;-76
2022/11/03 02:48:16;;;;;;;15.93;3.20;;;11.20;70.70;;;;;;5076620;28;20044;-76
2022/11/03 02:50:42;;;;;;;14.23;3.08;;;11.20;70.70;;;;;;5060276;28;20044;-76
2022/11/03 02:53:12;;;;;;;9.35;2.17;;;11.20;70.70;;;;;;5058444;28;20043;-76
2022/11/03 02:55:59;;;;;;;13.52;3.00;;;11.20;70.80;;;;;;5076659;28;20085;-76
2022/11/03 02:58:33;;;;;;;14.68;3.13;;;11.20;70.80;;;;;;5076164;28;20495;-76
2022/11/03 03:01:21;;;;;;;13.70;2.75;;;11.20;70.80;;;;;;5076981;28;20051;-76
2022/11/03 03:03:52;;;;;;;12.32;2.78;;;11.30;70.90;;;;;;5085053;28;20079;-76
2022/11/03 03:06:25;;;;;;;12.07;3.20;;;11.20;70.90;;;;;;5076581;28;20134;-76
2022/11/03 03:08:57;;;;;;;13.45;3.00;;;11.30;71.00;;;;;;5075820;28;20492;-76
2022/11/03 03:11:35;;;;;;;14.77;3.40;;;11.30;71.00;;;;;;5076075;28;20089;-76
2022/11/03 03:14:14;;;;;;;9.05;2.45;;;11.30;71.00;;;;;;5061562;28;20119;-76
2022/11/03 03:17:00;;;;;;;14.00;3.03;;;11.30;71.00;;;;;;5075765;28;20161;-76
2022/11/03 03:19:58;;;;;;;13.35;2.95;;;11.30;71.10;;;;;;5059807;28;20040;-76
2022/11/03 03:22:45;;;;;;;10.35;3.03;;;11.30;71.20;;;;;;5076415;28;20652;-76
2022/11/03 03:25:34;;;;;;;12.40;2.97;;;11.30;71.10;;;;;;5063914;28;20036;-76
2022/11/03 03:28:15;;;;;;;12.05;2.80;;;11.30;71.10;;;;;;5039554;28;20123;-76
2022/11/03 03:30:43;;;;;;;10.68;2.55;;;11.20;71.10;;;;;;5067806;28;20028;-75
2022/11/03 03:33:11;;;;;;;16.67;3.67;;;11.30;71.30;;;;;;5075679;28;20554;-75
2022/11/03 03:35:41;;;;;;;9.25;2.40;;;11.20;71.20;;;;;;5092954;28;20477;-75
2022/11/03 03:38:24;;;;;;;8.90;2.67;;;11.20;71.30;;;;;;5075892;28;20044;-76
2022/11/03 03:40:52;;;;;;;15.07;3.88;;;11.30;71.40;;;;;;5061434;28;20467;-75
2022/11/03 03:43:19;;;;;;;9.52;3.00;;;11.30;71.40;;;;;;5072555;28;20051;-76
2022/11/03 03:45:47;;;;;;;14.90;4.07;;;11.30;71.40;;;;;;5072459;28;20059;-76
2022/11/03 03:48:13;;;;;;;11.20;2.67;;;11.30;71.50;;;;;;5055864;28;20396;-77
2022/11/03 03:50:41;;;;;;;11.32;2.67;;;11.30;71.50;;;;;;5072323;28;20040;-76
2022/11/03 03:53:11;;;;;;;13.68;3.30;;;11.30;71.60;;;;;;5075900;28;20387;-76
2022/11/03 03:55:44;;;;;;;9.85;2.35;;;11.30;71.60;;;;;;5063650;28;20112;-76
2022/11/03 03:58:12;;;;;;;14.93;3.30;;;11.30;71.70;;;;;;5072399;28;20044;-76
2022/11/03 04:00:39;;;;;;;10.48;2.90;;;11.30;71.60;;;;;;5075941;28;20039;-75
2022/11/03 04:03:06;;;;;;;11.07;2.50;;;11.30;71.70;;;;;;5075038;28;20043;-75
2022/11/03 04:05:32;;;;;;;11.07;3.45;;;11.30;71.80;;;;;;5075323;28;20042;-75
2022/11/03 04:07:57;;;;;;;10.95;2.20;;;11.30;71.80;;;;;;5059020;28;20419;-75
2022/11/03 04:10:23;;;;;;;12.55;2.95;;;11.30;71.80;;;;;;5058930;28;20399;-75
2022/11/03 04:23:59;;;;;;;15.52;3.10;;;11.30;71.90;;;;;;5075065;28;20051;-75
2022/11/03 04:26:26;;;;;;;9.55;2.42;;;11.40;72.00;;;;;;5075419;28;20429;-76
2022/11/03 04:28:53;;;;;;;10.43;2.67;;;11.40;72.00;;;;;;5058299;28;20044;-75
2022/11/03 04:31:19;;;;;;;13.85;3.33;;;11.50;72.00;;;;;;5075614;28;20541;-76
2022/11/03 04:33:46;;;;;;;12.00;2.78;;;11.40;71.90;;;;;;5075449;28;20379;-75
2022/11/03 04:36:23;;;;;;;14.60;3.63;;;11.50;71.90;;;;;;5074793;28;20043;-76
2022/11/03 04:38:51;;;;;;;10.82;2.65;;;11.50;71.80;;;;;;5075580;28;20416;-75
2022/11/03 04:41:20;;;;;;;9.85;2.70;;;11.50;71.90;;;;;;5075363;28;20040;-75
2022/11/03 04:43:46;;;;;;;11.48;2.33;;;11.60;71.90;;;;;;5068316;28;20048;-76
2022/11/03 04:46:15;;;;;;;12.00;2.88;;;11.50;71.80;;;;;;5074742;28;20491;-75
2022/11/03 04:48:42;;;;;;;10.38;3.20;;;11.60;71.80;;;;;;5078840;28;20055;-75
2022/11/03 04:51:21;;;;;;;10.65;2.88;;;11.60;71.80;;;;;;5079211;28;20044;-75
2022/11/03 04:53:54;;;;;;;11.70;2.53;;;11.60;71.80;;;;;;5078841;28;20040;-75
2022/11/03 04:56:23;;;;;;;13.07;2.88;;;11.60;71.80;;;;;;5079048;28;20046;-75
2022/11/03 04:58:49;;;;;;;9.93;2.90;;;11.60;71.80;;;;;;5079885;28;20040;-75
2022/11/03 05:01:18;;;;;;;13.23;2.70;;;11.60;71.80;;;;;;5059238;28;20139;-75
2022/11/03 05:03:46;;;;;;;11.05;2.60;;;11.60;71.80;;;;;;5075468;28;20105;-75
2022/11/03 05:06:21;;;;;;;12.25;2.72;;;11.60;71.70;;;;;;5078963;28;20567;-76
2022/11/03 05:08:54;;;;;;;12.43;2.83;;;11.60;71.80;;;;;;5078921;28;20044;-76
2022/11/03 05:11:21;;;;;;;13.25;2.53;;;11.60;71.70;;;;;;5078692;28;20039;-75
2022/11/03 05:13:47;;;;;;;8.73;2.05;;;11.60;71.70;;;;;;5078712;28;20040;-76
2022/11/03 05:16:13;;;;;;;10.57;2.30;;;11.60;71.70;;;;;;5071038;28;20128;-76
2022/11/03 05:18:42;;;;;;;10.38;2.35;;;11.60;71.70;;;;;;5078874;28;20079;-75
2022/11/03 05:21:14;;;;;;;10.27;2.60;;;11.70;71.80;;;;;;5078502;28;20040;-76
2022/11/03 05:23:53;;;;;;;10.68;2.33;;;11.60;71.70;;;;;;5068826;28;20441;-76
2022/11/03 05:26:33;;;;;;;14.52;2.65;;;11.60;71.70;;;;;;5061440;28;20119;-75
2022/11/03 05:29:01;;;;;;;12.05;2.78;;;11.70;71.70;;;;;;5095154;28;20055;-75
2022/11/03 05:31:29;;;;;;;11.75;3.28;;;11.70;71.70;;;;;;5078404;28;20085;-76
2022/11/03 05:34:00;;;;;;;6.30;1.80;;;11.70;71.80;;;;;;5069988;28;20043;-76
2022/11/03 05:36:29;;;;;;;11.45;3.13;;;11.70;71.70;;;;;;5077918;28;20093;-75
2022/11/03 05:39:00;;;;;;;8.90;2.63;;;11.70;71.70;;;;;;5078438;28;20036;-76
2022/11/03 05:41:28;;;;;;;12.10;3.55;;;11.70;72.10;;;;;;5078297;28;20043;-75
2022/11/03 05:44:00;;;;;;;9.60;2.38;;;11.70;71.70;;;;;;5072251;28;20515;-75
2022/11/03 05:46:29;;;;;;;9.52;3.13;;;11.70;71.70;;;;;;5074711;28;20090;-75
2022/11/03 05:48:56;;;;;;;11.98;2.45;;;11.70;71.70;;;;;;5072663;28;20048;-75
2022/11/03 05:51:26;;;;;;;11.25;2.15;;;11.70;71.80;;;;;;5078057;28;20100;-77
2022/11/03 05:53:59;;;;;;;8.25;3.05;;;11.60;71.70;;;;;;5077297;28;20036;-76
2022/11/03 05:56:25;;;;;;;13.70;3.10;;;11.70;71.80;;;;;;5061112;28;20051;-76
2022/11/03 05:58:54;;;;;;;11.10;2.60;;;11.70;71.80;;;;;;5078292;28;20040;-76
2022/11/03 06:01:35;;;;;;;11.38;3.08;;;11.70;71.90;;;;;;5077472;28;20047;-76
2022/11/03 06:04:27;;;;;;;12.23;2.85;;;11.70;71.80;;;;;;5077684;28;20425;-76
2022/11/03 06:06:54;;;;;;;11.05;3.05;;;11.70;71.80;;;;;;5077711;28;20039;-76
2022/11/03 06:09:23;;;;;;;12.40;3.40;;;11.70;71.80;;;;;;5060869;28;20072;-76
2022/11/03 06:11:52;;;;;;;10.07;2.53;;;11.70;71.80;;;;;;5077457;28;20048;-76
2022/11/03 06:14:25;;;;;;;8.73;2.55;;;11.70;71.80;;;;;;5077134;28;20108;-76
2022/11/03 06:17:09;;;;;;;9.45;2.38;;;11.70;71.80;;;;;;5077000;28;20096;-77
2022/11/03 06:19:38;;;;;;;9.00;2.78;;;11.70;71.80;;;;;;5077652;28;20036;-76
2022/11/03 06:22:30;;;;;;;9.25;2.50;;;11.70;71.80;;;;;;5075009;28;20036;-76
2022/11/03 06:25:10;;;;;;;14.25;2.60;;;11.70;71.80;;;;;;5064748;28;20032;-76
2022/11/03 06:27:37;;;;;;;9.70;2.33;;;11.70;71.90;;;;;;5066897;28;20044;-75
2022/11/03 06:30:29;;;;;;;10.48;2.72;;;11.70;71.90;;;;;;5066054;28;20127;-74
2022/11/03 06:32:59;;;;;;;10.90;3.13;;;11.70;72.00;;;;;;5048426;28;20040;-75
2022/11/03 06:35:25;;;;;;;12.80;3.03;;;11.60;72.00;;;;;;5050187;28;20361;-75
2022/11/03 06:37:51;;;;;;;11.65;2.45;;;11.70;72.10;;;;;;5067785;28;20315;-75
2022/11/03 06:40:16;;;;;;;10.13;2.67;;;11.70;72.10;;;;;;5077224;28;20044;-75
2022/11/03 06:42:42;;;;;;;11.57;2.92;;;11.70;72.10;;;;;;5057970;28;20048;-75
2022/11/03 06:45:19;;;;;;;9.13;2.58;;;11.70;72.20;;;;;;5040540;28;20036;-76
2022/11/03 06:47:46;;;;;;;10.57;2.75;;;11.70;72.20;;;;;;5049200;28;20399;-75
2022/11/03 06:50:30;;;;;;;10.43;2.50;;;11.70;72.20;;;;;;5060369;28;20032;-75
2022/11/03 06:52:57;;;;;;;10.27;2.53;;;11.70;72.20;;;;;;5070887;28;20651;-75
2022/11/03 06:55:28;;;;;;;10.15;2.63;;;11.70;72.30;;;;;;5073536;28;20044;-75
2022/11/03 06:58:01;;;;;;;11.88;3.72;;;11.70;72.30;;;;;;5076851;28;20055;-75
2022/11/03 07:00:28;;;;;;;8.43;2.50;;;11.60;72.20;;;;;;5077177;28;20040;-76
2022/11/03 07:03:13;;;;;;;9.95;2.60;;;11.70;72.40;;;;;;5076746;28;20399;-75
2022/11/03 07:05:39;;;;;;;9.82;2.25;;;11.70;72.40;;;;;;5076959;28;20066;-75
2022/11/03 07:08:27;;;;;;;8.30;2.25;;;11.70;72.40;;;;;;5076811;28;20043;-75
2022/11/03 07:11:01;;;;;;;10.95;2.58;;;11.70;72.50;;;;;;5059387;28;20036;-75
2022/11/03 07:13:29;;;;;;;10.68;2.67;;;11.80;72.60;;;;;;5073077;28;20448;-76
2022/11/03 07:15:55;;;;;;;12.90;2.42;;;11.70;72.60;;;;;;5073307;28;20040;-75
2022/11/03 07:18:30;;;;;;;9.45;2.55;;;11.80;72.70;;;;;;5052935;28;20049;-75
2022/11/03 07:20:57;;;;;;;9.38;2.47;;;11.80;72.70;;;;;;5053893;28;20072;-75
2022/11/03 07:23:27;;;;;;;12.77;3.38;;;11.80;72.80;;;;;;5071713;28;20154;-75
2022/11/03 07:25:57;;;;;;;10.07;2.45;;;11.80;72.80;;;;;;5073106;28;20091;-75
2022/11/03 07:28:33;;;;;;;12.38;2.67;;;11.90;72.90;;;;;;5072762;28;20051;-75
2022/11/03 07:31:01;;;;;;;14.70;3.15;;;11.90;73.30;;;;;;5072721;28;20041;-75
2022/11/03 07:33:30;;;;;;;12.88;2.40;;;11.90;72.90;;;;;;5068648;28;20037;-75
2022/11/03 07:35:57;;;;;;;11.85;2.70;;;12.00;73.00;;;;;;5069177;28;20115;-74
2022/11/03 07:38:25;;;;;;;11.13;2.38;;;12.00;73.00;;;;;;5069207;28;20507;-75
2022/11/03 07:40:52;;;;;;;11.30;3.10;;;12.00;73.00;;;;;;5069533;28;20041;-75
2022/11/03 07:43:22;;;;;;;8.88;2.75;;;12.00;72.90;;;;;;5050243;28;20044;-74
2022/11/03 07:45:50;;;;;;;10.38;2.50;;;12.10;73.00;;;;;;5072528;28;20040;-74
2022/11/03 07:48:50;;;;;;;10.27;2.60;;;12.10;73.00;;;;;;5072096;28;20110;-74
2022/11/03 07:51:42;;;;;;;9.73;2.20;;;12.10;73.00;;;;;;5029729;28;20127;-75
2022/11/03 07:54:08;;;;;;;9.93;2.58;;;12.10;72.90;;;;;;5058700;28;20098;-75
2022/11/03 07:56:58;;;;;;;9.00;2.42;;;12.20;73.00;;;;;;5072314;28;20501;-75
2022/11/03 07:59:35;;;;;;;8.93;2.40;;;12.20;73.00;;;;;;5044859;28;20056;-74
2022/11/03 08:02:10;;;;;;;11.05;2.60;;;12.20;73.60;;;;;;5055887;28;20047;-74
2022/11/03 08:04:36;;;;;;;11.52;2.45;;;12.30;73.20;;;;;;5067471;28;20048;-74
2022/11/03 08:07:02;;;;;;;7.50;2.28;;;12.30;73.20;;;;;;5072194;28;20051;-74
2022/11/03 08:09:27;;;;;;;10.30;2.35;;;12.30;73.20;;;;;;5052783;28;20108;-74
2022/11/03 08:11:53;;;;;;;8.27;2.40;;;12.40;73.30;;;;;;5039832;28;20041;-75
2022/11/03 08:14:19;;;;;;;8.52;2.40;;;12.40;73.30;;;;;;5058735;28;20036;-74
2022/11/03 08:16:45;;;;;;;11.30;2.83;;;12.50;73.40;;;;;;5058706;28;20113;-75
2022/11/03 08:19:11;;;;;;;8.80;3.38;;;12.50;73.40;;;;;;5092175;28;20048;-75
2022/11/03 08:21:36;;;;;;;9.95;2.53;;;12.60;73.40;;;;;;5057764;28;20430;-75
2022/11/03 08:24:03;;;;;;;12.90;2.63;;;12.60;73.20;;;;;;5067129;28;20032;-76
2022/11/03 08:26:28;;;;;;;11.50;2.60;;;12.60;73.20;;;;;;5054777;28;20484;-75
2022/11/03 08:28:54;;;;;;;8.60;2.40;;;12.70;73.10;;;;;;5065126;28;20051;-75
2022/11/03 08:31:20;;;;;;;9.95;3.35;;;12.70;73.10;;;;;;5092164;28;20071;-76
2022/11/03 08:33:45;;;;;;;8.90;3.40;;;12.70;73.00;;;;;;5070450;28;20122;-74
2022/11/03 08:36:11;;;;;;;13.88;3.85;;;12.80;73.00;;;;;;5038856;28;20040;-75
2022/11/03 08:38:37;;;;;;;9.85;2.78;;;12.80;72.90;;;;;;5061367;28;20040;-75
2022/11/03 08:41:03;;;;;;;11.65;2.85;;;12.90;73.00;;;;;;5075134;28;20040;-74
2022/11/03 08:43:29;;;;;;;9.48;2.45;;;12.90;72.90;;;;;;5074610;28;20036;-75
2022/11/03 08:45:55;;;;;;;9.18;2.65;;;12.90;72.90;;;;;;5075210;28;20093;-75
2022/11/03 08:48:26;;;;;;;10.30;2.33;;;12.90;72.90;;;;;;5091940;28;20047;-75
2022/11/03 08:50:55;;;;;;;15.25;3.50;;;13.00;72.80;;;;;;5059443;28;20047;-75
2022/11/03 08:53:22;;;;;;;8.77;2.40;;;13.00;72.70;;;;;;5058133;28;20032;-75
2022/11/03 08:55:48;;;;;;;9.40;2.42;;;13.00;72.60;;;;;;5075170;28;20127;-75
2022/11/03 08:58:14;;;;;;;10.10;2.47;;;13.10;72.50;;;;;;5075022;28;20541;-75
2022/11/03 09:00:39;;;;;;;9.10;2.95;;;13.10;72.40;;;;;;5074847;28;20495;-75
2022/11/03 09:03:05;;;;;;;12.75;2.60;;;13.10;72.30;;;;;;5074776;28;20043;-75
2022/11/03 09:05:31;;;;;;;9.18;2.72;;;13.10;72.10;;;;;;5058180;28;20051;-75
2022/11/03 09:07:56;;;;;;;11.43;2.83;;;13.20;72.20;;;;;;5074806;28;20467;-75
2022/11/03 09:10:22;;;;;;;8.13;2.10;;;13.20;72.10;;;;;;5057138;28;20094;-74
2022/11/03 09:12:48;;;;;;;11.05;2.70;;;13.20;72.10;;;;;;5046467;28;20127;-75
2022/11/03 09:15:14;;;;;;;13.68;3.40;;;13.20;72.00;;;;;;5056213;28;20045;-75
2022/11/03 09:17:39;;;;;;;12.65;2.72;;;13.30;72.00;;;;;;5038482;28;20128;-75
2022/11/03 09:20:05;;;;;;;10.75;2.80;;;13.30;72.00;;;;;;5071536;28;20045;-75
2022/11/03 09:22:31;;;;;;;6.88;2.10;;;13.30;72.00;;;;;;5074539;28;20072;-76
2022/11/03 09:24:57;;;;;;;8.15;2.47;;;13.40;72.00;;;;;;5070747;28;20075;-75
2022/11/03 09:27:23;;;;;;;11.52;2.70;;;13.40;72.00;;;;;;5037950;28;20488;-74
2022/11/03 09:29:49;;;;;;;10.13;2.60;;;13.40;72.00;;;;;;5038014;28;20056;-74
2022/11/03 09:32:15;;;;;;;6.90;2.50;;;13.50;71.90;;;;;;5058223;28;20036;-74
2022/11/03 09:34:41;;;;;;;10.82;2.88;;;13.50;71.80;;;;;;5078375;28;20031;-74
2022/11/03 09:37:07;;;;;;;13.18;2.60;;;13.60;71.70;;;;;;5078361;28;20544;-75
2022/11/03 09:39:33;;;;;;;10.13;2.63;;;13.60;71.80;;;;;;5078190;28;20061;-75
2022/11/03 09:41:59;;;;;;;17.15;3.25;;;13.60;71.60;;;;;;5077996;28;20036;-75
2022/11/03 09:44:25;;;;;;;12.45;2.92;;;13.60;71.30;;;;;;5078426;28;20450;-75
2022/11/03 09:46:52;;;;;;;10.07;2.45;;;13.70;71.30;;;;;;5044890;28;20040;-74
2022/11/03 09:49:20;;;;;;;7.88;2.33;;;13.70;71.20;;;;;;5044835;28;20368;-75
2022/11/03 09:51:45;;;;;;;9.30;2.85;;;13.80;71.10;;;;;;5078025;28;20070;-74
2022/11/03 09:54:14;;;;;;;12.43;2.88;;;13.80;71.10;;;;;;5094594;28;20036;-76
2022/11/03 09:56:41;;;;;;;9.57;2.83;;;13.80;70.80;;;;;;5078056;28;20047;-74
2022/11/03 09:59:19;;;;;;;8.18;2.50;;;13.90;70.60;;;;;;5077848;28;20036;-74
2022/11/03 10:01:48;;;;;;;9.50;2.60;;;13.90;70.40;;;;;;5077714;28;20495;-75
2022/11/03 10:04:18;;;;;;;7.95;2.63;;;13.90;70.50;;;;;;5077394;28;20046;-74
2022/11/03 10:06:44;;;;;;;13.48;3.17;;;13.90;70.30;;;;;;5077808;28;20518;-75
2022/11/03 10:09:16;;;;;;;13.98;3.17;;;13.90;70.10;;;;;;5077432;28;20040;-75
2022/11/03 10:11:43;;;;;;;12.05;2.47;;;14.00;70.10;;;;;;5077797;28;20522;-75
2022/11/03 10:14:12;;;;;;;8.80;2.70;;;14.00;70.00;;;;;;5077002;28;20063;-74
2022/11/03 10:16:40;;;;;;;12.63;3.30;;;14.10;70.00;;;;;;5077857;28;20135;-75
2022/11/03 10:19:10;;;;;;;8.27;2.95;;;14.20;69.90;;;;;;5077959;28;20097;-74
2022/11/03 10:21:37;;;;;;;10.70;2.97;;;14.30;69.70;;;;;;5077384;28;20634;-75
2022/11/03 10:24:03;;;;;;;11.55;2.88;;;14.40;69.40;;;;;;5057281;28;20044;-75
2022/11/03 10:26:41;;;;;;;11.60;2.53;;;14.50;69.10;;;;;;5077277;28;20185;-75
2022/11/03 10:29:10;;;;;;;10.93;2.75;;;14.50;68.90;;;;;;5077501;28;20072;-75
2022/11/03 10:31:38;;;;;;;8.57;2.33;;;14.60;68.60;;;;;;5073917;28;20119;-75
2022/11/03 10:34:05;;;;;;;9.73;2.97;;;14.70;67.90;;;;;;5057250;28;20487;-75
2022/11/03 10:36:32;;;;;;;11.80;3.85;;;14.70;67.80;;;;;;5077242;28;20040;-76
2022/11/03 10:39:00;;;;;;;9.50;3.25;;;14.80;67.70;;;;;;5077255;28;20119;-74
2022/11/03 10:41:31;;;;;;;7.05;2.30;;;14.80;67.60;;;;;;5069706;28;20036;-75
2022/11/03 10:44:03;;;;;;;10.63;2.80;;;14.90;67.60;;;;;;5073360;28;20106;-75
2022/11/03 10:46:29;;;;;;;12.27;2.92;;;14.90;67.20;;;;;;5073830;28;20044;-75
2022/11/03 10:49:08;;;;;;;9.43;2.25;;;14.90;67.00;;;;;;5073542;28;20048;-75
2022/11/03 10:51:35;;;;;;;9.27;2.35;;;15.00;66.20;;;;;;5073504;28;20041;-75
2022/11/03 10:54:02;;;;;;;10.45;2.58;;;15.00;65.50;;;;;;5072772;28;20413;-75
2022/11/03 10:56:28;;;;;;;6.25;2.22;;;15.10;65.50;;;;;;5093998;28;20044;-75
2022/11/03 10:58:55;;;;;;;10.73;2.70;;;15.10;65.70;;;;;;5076882;28;20047;-75
2022/11/03 11:01:21;;;;;;;11.27;2.67;;;15.10;65.80;;;;;;5076195;28;20040;-75
2022/11/03 11:03:47;;;;;;;8.68;2.80;;;15.10;65.50;;;;;;5059383;28;20105;-75
2022/11/03 11:06:39;;;;;;;8.13;2.30;;;15.20;64.90;;;;;;5076385;28;20036;-75
2022/11/03 11:09:05;;;;;;;8.80;2.30;;;15.30;64.80;;;;;;5072044;28;20124;-75
2022/11/03 11:11:31;;;;;;;11.15;2.55;;;15.30;64.90;;;;;;5076390;28;20240;-75
2022/11/03 11:14:19;;;;;;;9.07;2.33;;;15.30;64.30;;;;;;5063445;28;20052;-76
2022/11/03 11:16:48;;;;;;;7.72;2.20;;;15.30;64.20;;;;;;5049408;28;20067;-75
2022/11/03 11:19:14;;;;;;;7.82;2.28;;;15.30;64.40;;;;;;5073388;28;20048;-75
2022/11/03 11:21:40;;;;;;;8.60;2.58;;;15.40;64.60;;;;;;5077198;28;20086;-75
2022/11/03 11:24:09;;;;;;;8.93;2.45;;;15.40;64.40;;;;;;5077088;28;20036;-76
2022/11/03 11:26:36;;;;;;;9.73;2.55;;;15.40;63.90;;;;;;5072866;28;20044;-75
2022/11/03 11:29:08;;;;;;;7.78;2.75;;;15.40;63.80;;;;;;5072937;28;20418;-76
2022/11/03 11:31:35;;;;;;;5.72;1.85;;;15.40;63.90;;;;;;5056068;28;20067;-76
2022/11/03 11:34:11;;;;;;;10.25;2.55;;;15.40;63.90;;;;;;5072682;28;20414;-76
2022/11/03 11:36:38;;;;;;;5.93;1.92;;;15.40;63.70;;;;;;5068135;28;20498;-76
2022/11/03 11:39:26;;;;;;;7.88;2.15;;;15.40;64.40;;;;;;5056051;28;20101;-76
2022/11/03 11:42:15;;;;;;;8.98;2.70;;;15.50;63.70;;;;;;5072555;28;20087;-75
2022/11/03 11:44:49;;;;;;;6.10;1.98;;;15.40;63.60;;;;;;5064402;28;20037;-76
2022/11/03 11:47:24;;;;;;;7.63;2.00;;;15.50;63.70;;;;;;5068920;28;20080;-76
2022/11/03 11:50:11;;;;;;;9.18;1.95;;;15.50;63.40;;;;;;5069089;28;20041;-76
2022/11/03 11:52:48;;;;;;;8.88;2.35;;;15.50;63.30;;;;;;5069835;28;20041;-76
2022/11/03 11:55:25;;;;;;;9.48;2.95;;;15.50;63.20;;;;;;5072297;28;20041;-76
2022/11/03 11:57:52;;;;;;;7.88;2.17;;;15.50;63.00;;;;;;5072153;28;20037;-76
2022/11/03 12:00:30;;;;;;;7.40;2.40;;;15.50;62.90;;;;;;5072328;28;20037;-76
2022/11/03 12:02:58;;;;;;;5.40;1.90;;;15.50;62.10;;;;;;5054889;28;20120;-76
2022/11/03 12:05:27;;;;;;;7.78;2.17;;;15.50;62.40;;;;;;5072349;28;20044;-75
2022/11/03 12:07:54;;;;;;;5.95;2.08;;;15.40;62.40;;;;;;5062958;28;20467;-75
2022/11/03 12:10:25;;;;;;;5.18;1.80;;;15.50;62.80;;;;;;5068437;28;20120;-75
2022/11/03 12:12:52;;;;;;;6.82;2.22;;;15.50;62.50;;;;;;5071488;28;20062;-75
2022/11/03 12:15:47;;;;;;;6.03;1.75;;;15.40;62.40;;;;;;5072081;28;20079;-75
2022/11/03 12:18:33;;;;;;;8.80;2.17;;;15.50;61.80;;;;;;5071653;28;20048;-75
2022/11/03 12:21:19;;;;;;;7.13;2.28;;;15.40;62.10;;;;;;5072053;28;20041;-75
2022/11/03 12:23:46;;;;;;;8.45;2.45;;;15.40;62.10;;;;;;5041400;28;20051;-75
2022/11/03 12:26:28;;;;;;;9.13;2.53;;;15.40;62.00;;;;;;5072199;28;20036;-79
2022/11/03 12:28:54;;;;;;;5.65;1.63;;;15.40;62.20;;;;;;5071818;28;20400;-75
2022/11/03 12:31:20;;;;;;;7.75;2.58;;;15.40;61.70;;;;;;5072056;28;20040;-75
2022/11/03 12:33:45;;;;;;;5.40;1.90;;;15.40;61.40;;;;;;5071568;28;20032;-75
2022/11/03 12:36:11;;;;;;;6.38;2.28;;;15.40;61.80;;;;;;5071953;28;20549;-76
2022/11/03 12:38:37;;;;;;;5.78;1.85;;;15.40;62.00;;;;;;5071558;28;20414;-76
2022/11/03 12:41:21;;;;;;;6.63;1.92;;;15.50;62.20;;;;;;5072044;28;20041;-76
2022/11/03 12:43:48;;;;;;;6.57;2.22;;;15.50;62.00;;;;;;5071655;28;20045;-75
2022/11/03 12:46:18;;;;;;;4.38;1.83;;;15.50;61.90;;;;;;5071935;28;20067;-76
2022/11/03 12:48:46;;;;;;;8.18;2.45;;;15.50;61.40;;;;;;5071395;28;20045;-76
2022/11/03 12:51:17;;;;;;;9.20;2.40;;;15.50;61.30;;;;;;5071532;28;20106;-76
2022/11/03 12:53:43;;;;;;;7.60;2.63;;;15.60;61.10;;;;;;5071229;28;20036;-74
2022/11/03 12:56:10;;;;;;;8.98;2.28;;;15.60;61.00;;;;;;5071543;28;20037;-75
2022/11/03 12:58:37;;;;;;;8.88;1.90;;;15.60;60.60;;;;;;5071238;28;20051;-75
2022/11/03 13:01:03;;;;;;;8.02;2.05;;;15.60;60.60;;;;;;5071506;28;20075;-75
2022/11/03 13:03:31;;;;;;;6.88;2.33;;;15.60;60.60;;;;;;5067822;28;20068;-76
2022/11/03 13:05:57;;;;;;;5.45;2.00;;;15.60;60.50;;;;;;5071310;28;20060;-76
2022/11/03 13:08:23;;;;;;;6.82;2.03;;;15.60;60.40;;;;;;5072672;28;20037;-77
2022/11/03 13:10:49;;;;;;;6.25;2.05;;;15.60;60.40;;;;;;5038482;28;20102;-76
2022/11/03 13:13:15;;;;;;;4.68;1.55;;;15.60;60.30;;;;;;5046759;28;20050;-76
2022/11/03 13:15:41;;;;;;;6.25;1.83;;;15.60;60.20;;;;;;5075547;28;20113;-76